This is the latest recevied weather packets stored in our database for station/object CE3MLB. If no packets are shown the sender has not sent any weather packets the latest 10 day(s).
| Time | Temp. | Humidity | Pressure | Rain* | Wind** | Luminosity | Snow |
|---|---|---|---|---|---|---|---|
| 1778025603 | 12.22° C | 95% | 1003.5 hPa | 0 mm | - | 0 W/m² | - |
| 1778022000 | 13.33° C | 93% | 1003 hPa | 0 mm | - | 0 W/m² | - |
| 1778018397 | 13.89° C | 89% | 1002.7 hPa | 0 mm | - | 0 W/m² | - |
| 1778014796 | 15° C | 85% | 1001.7 hPa | 0 mm | - | 33 W/m² | - |
| 1778011194 | 17.22° C | 77% | 1001.3 hPa | 0 mm | - | 95 W/m² | - |
| 1778007592 | 19.44° C | 67% | 1000.7 hPa | 0 mm | - | 121 W/m² | - |
| 1778003989 | 21.11° C | 63% | 1000.1 hPa | 0 mm | - | 261 W/m² | - |
| 1778000388 | 22.78° C | 63% | 1000 hPa | 0 mm | - | 248 W/m² | - |
| 1777996788 | 20.56° C | 65% | 1000.1 hPa | 0 mm | - | 206 W/m² | - |
| 1777993185 | 18.89° C | 69% | 1000.6 hPa | 0 mm | - | 322 W/m² | - |
| 1777989581 | 16.11° C | 81% | 1000.5 hPa | 0 mm | - | 139 W/m² | - |
| 1777985978 | 10.56° C | 99% | 1000.5 hPa | 0 mm | - | 63 W/m² | - |
| 1777982375 | 8.33° C | 99% | 1000.9 hPa | 0 mm | - | 16 W/m² | - |
| 1777978774 | 7.78° C | 99% | 1002.6 hPa | 0 mm | - | 0 W/m² | - |
| 1777975173 | 7.22° C | 99% | 1002.2 hPa | 0 mm | - | 0 W/m² | - |
| 1777971568 | 7.22° C | 99% | 1001.3 hPa | 0 mm | - | 0 W/m² | - |
| 1777967966 | 7.22° C | 99% | 1001.6 hPa | 0 mm | - | 0 W/m² | - |
| 1777964362 | 7.78° C | 99% | 1001.5 hPa | 0 mm | - | 0 W/m² | - |
| 1777960761 | 8.33° C | 99% | 1001.8 hPa | 0 mm | - | 0 W/m² | - |
| 1777957156 | 8.89° C | 99% | 1002.2 hPa | 0 mm | - | 0 W/m² | - |
| 1777953553 | 9.44° C | 99% | 1002.7 hPa | 0 mm | - | 0 W/m² | - |
| 1777949949 | 10.56° C | 97% | 1002.5 hPa | 0 mm | - | 0 W/m² | - |
| 1777946347 | 11.11° C | 96% | 1001.9 hPa | 0 mm | - | 0 W/m² | - |
| 1777942744 | 11.67° C | 95% | 1001.5 hPa | 0 mm | - | 0 W/m² | - |
| 1777939144 | 12.22° C | 93% | 1001.5 hPa | 0 mm | - | 0 W/m² | - |
* Rain latest hour (hover to see other rain measurements)
** Current wind speed in m/s (hover to see current wind gust speed)